Terminal Aerodrome Forecast
Issued by NWS Des Moines, IA

Home | Current Version | Previous Version | Text Only | Print | Product List | Glossary On
Versions: 1 2 3 4 5 6 7 8 9 10 11 12 13 14 15 16 17 18 19 20 21 22 23 24 25 26 27 28 29 30 31 32 33 34 35 36 37 38 39 40
325
FTUS43 KDMX 261739
TAFALO
TAF
KALO 261739Z 2618/2718 24012KT P6SM SCT100
     FM261900 26011KT P6SM SKC
     FM270100 24004KT P6SM FEW250
     FM270600 17003KT 5SM BR FEW120
     FM271300 15004KT P6SM FEW110=

USA.gov is the U.S. government's official web portal to all federal, state and local government web resources and services.